Time;durP1;ratioP1;P1;durP2;ratioP2;P2;SDS_P1;SDS_P2;PMS_P1;PMS_P2;Temp;Humidity;BMP_temperature;BMP_pressure;BME280_temperature;BME280_humidity;BME280_pressure;Samples;Min_cycle;Max_cycle;Signal;HPM_P1;HPM_P2
2023/07/16 00:00:38;;;;;;;13.20;3.45;;;;;;;;;;4971187;28;20066;-74
2023/07/16 00:03:04;;;;;;;13.95;2.83;;;;;;;;;;4986977;28;20034;-74
2023/07/16 00:05:30;;;;;;;17.45;4.03;;;;;;;;;;4985647;28;20042;-74
2023/07/16 00:07:56;;;;;;;14.13;2.90;;;;;;;;;;4985169;28;20030;-74
2023/07/16 00:10:22;;;;;;;15.73;3.90;;;;;;;;;;4987425;28;20395;-74
2023/07/16 00:12:48;;;;;;;7.90;3.00;;;;;;;;;;4984480;28;20109;-74
2023/07/16 00:15:14;;;;;;;25.70;3.05;;;;;;;;;;4990625;28;20050;-74
2023/07/16 00:17:40;;;;;;;10.35;2.85;;;;;;;;;;4985951;28;20485;-74
2023/07/16 00:20:07;;;;;;;12.07;3.17;;;;;;;;;;4986933;28;20049;-74
2023/07/16 00:22:33;;;;;;;15.07;3.03;;;;;;;;;;4970163;28;20365;-73
2023/07/16 00:24:59;;;;;;;11.40;3.00;;;;;;;;;;4981614;28;20027;-74
2023/07/16 00:27:25;;;;;;;10.77;2.67;;;;;;;;;;4988758;28;20128;-74
2023/07/16 00:29:51;;;;;;;17.80;3.40;;;;;;;;;;4987534;28;20050;-74
2023/07/16 00:32:17;;;;;;;13.35;3.67;;;;;;;;;;4981813;28;20184;-72
2023/07/16 00:34:43;;;;;;;14.27;2.97;;;;;;;;;;4988215;28;20046;-72
2023/07/16 00:37:09;;;;;;;13.05;2.95;;;;;;;;;;4984140;28;20114;-72
2023/07/16 00:39:35;;;;;;;9.27;2.42;;;;;;;;;;4987850;28;20027;-73
2023/07/16 00:42:01;;;;;;;12.85;2.78;;;;;;;;;;4982624;28;20030;-73
2023/07/16 00:44:27;;;;;;;13.25;2.95;;;;;;;;;;4983153;28;20043;-73
2023/07/16 00:46:53;;;;;;;8.85;2.42;;;;;;;;;;4986264;28;20395;-73
2023/07/16 00:49:19;;;;;;;10.23;2.63;;;;;;;;;;4988027;28;20042;-72
2023/07/16 00:51:46;;;;;;;12.35;3.55;;;;;;;;;;4972066;28;20034;-74
2023/07/16 00:54:12;;;;;;;16.85;2.75;;;;;;;;;;4986441;28;20100;-72
2023/07/16 00:56:38;;;;;;;12.45;3.70;;;;;;;;;;4983627;28;20035;-73
2023/07/16 00:59:04;;;;;;;15.57;3.55;;;;;;;;;;4984956;28;20038;-72
2023/07/16 01:01:30;;;;;;;14.07;3.67;;;;;;;;;;4984458;28;20037;-73
2023/07/16 01:03:56;;;;;;;13.88;4.13;;;;;;;;;;4984984;28;20132;-73
2023/07/16 01:06:25;;;;;;;11.75;2.90;;;;;;;;;;4988419;28;20030;-73
2023/07/16 01:08:54;;;;;;;15.00;3.15;;;;;;;;;;4976536;28;20484;-73
2023/07/16 01:11:20;;;;;;;11.40;3.30;;;;;;;;;;4985704;28;20038;-73
2023/07/16 01:13:46;;;;;;;14.10;2.95;;;;;;;;;;4980904;28;20085;-73
2023/07/16 01:16:20;;;;;;;9.73;2.92;;;;;;;;;;4985864;28;20034;-72
2023/07/16 01:18:46;;;;;;;13.63;3.67;;;;;;;;;;4982771;28;20372;-73
2023/07/16 01:21:12;;;;;;;13.32;3.38;;;;;;;;;;4983749;28;20388;-72
2023/07/16 01:23:57;;;;;;;22.10;3.33;;;;;;;;;;4985388;28;20395;-73
2023/07/16 01:26:33;;;;;;;10.85;3.25;;;;;;;;;;4979100;28;20030;-71
2023/07/16 01:29:02;;;;;;;13.80;3.33;;;;;;;;;;4987429;28;20022;-73
2023/07/16 01:31:29;;;;;;;13.90;3.17;;;;;;;;;;4982326;28;20105;-72
2023/07/16 01:33:55;;;;;;;16.55;2.67;;;;;;;;;;4983763;28;20130;-73
2023/07/16 01:36:21;;;;;;;15.82;3.28;;;;;;;;;;4987925;28;20023;-73
2023/07/16 01:38:47;;;;;;;10.65;3.30;;;;;;;;;;4987160;28;20482;-72
2023/07/16 01:41:13;;;;;;;12.70;3.00;;;;;;;;;;4984599;28;20056;-73
2023/07/16 01:43:39;;;;;;;14.05;2.58;;;;;;;;;;4985610;28;20298;-73
2023/07/16 01:46:05;;;;;;;12.63;2.85;;;;;;;;;;4983421;28;20490;-73
2023/07/16 01:48:33;;;;;;;12.10;3.80;;;;;;;;;;4987410;28;20046;-72
2023/07/16 01:50:59;;;;;;;10.85;2.33;;;;;;;;;;4981233;28;20053;-73
2023/07/16 01:53:26;;;;;;;10.45;2.05;;;;;;;;;;4982491;28;20034;-72
2023/07/16 01:55:52;;;;;;;7.95;2.30;;;;;;;;;;4986032;28;20041;-72
2023/07/16 01:58:18;;;;;;;10.15;2.47;;;;;;;;;;4988746;28;20118;-72
2023/07/16 02:00:44;;;;;;;8.32;3.20;;;;;;;;;;4983127;28;20051;-73
2023/07/16 02:03:10;;;;;;;13.75;3.17;;;;;;;;;;4984950;28;20460;-73
2023/07/16 02:05:36;;;;;;;19.13;3.05;;;;;;;;;;4983228;28;20125;-73
2023/07/16 02:08:02;;;;;;;11.10;2.25;;;;;;;;;;4986155;28;20033;-73
2023/07/16 02:10:28;;;;;;;8.95;3.00;;;;;;;;;;4988092;28;20162;-73
2023/07/16 02:12:54;;;;;;;9.32;2.50;;;;;;;;;;4984861;28;20117;-72
2023/07/16 02:15:20;;;;;;;12.27;3.08;;;;;;;;;;4985595;28;20458;-72
2023/07/16 02:17:47;;;;;;;9.90;2.25;;;;;;;;;;4989184;28;20162;-73
2023/07/16 02:20:13;;;;;;;10.48;3.67;;;;;;;;;;4989403;28;20471;-72
2023/07/16 02:22:39;;;;;;;12.18;2.88;;;;;;;;;;4987841;28;20114;-72
2023/07/16 02:25:06;;;;;;;10.27;2.83;;;;;;;;;;4990626;28;20369;-73
2023/07/16 02:27:32;;;;;;;12.02;3.28;;;;;;;;;;4989593;28;20045;-72
2023/07/16 02:29:58;;;;;;;14.82;3.15;;;;;;;;;;4990284;28;20030;-73
2023/07/16 02:32:24;;;;;;;19.40;3.67;;;;;;;;;;4983675;28;20030;-72
2023/07/16 02:34:50;;;;;;;14.30;3.47;;;;;;;;;;4983652;28;20375;-72
2023/07/16 02:37:16;;;;;;;10.95;3.47;;;;;;;;;;4984734;28;20038;-72
2023/07/16 02:39:47;;;;;;;13.65;3.42;;;;;;;;;;4984608;28;20038;-72
2023/07/16 02:42:13;;;;;;;9.70;3.63;;;;;;;;;;4979040;28;20794;-73
2023/07/16 02:44:44;;;;;;;12.75;3.13;;;;;;;;;;4982843;28;20084;-72
2023/07/16 02:47:10;;;;;;;9.80;3.30;;;;;;;;;;4982544;28;20030;-72
2023/07/16 02:49:36;;;;;;;9.70;3.17;;;;;;;;;;4985550;28;20053;-73
2023/07/16 02:52:02;;;;;;;12.05;3.67;;;;;;;;;;4981865;28;20038;-72
2023/07/16 02:54:28;;;;;;;10.48;3.25;;;;;;;;;;4986030;28;20042;-73
2023/07/16 02:56:54;;;;;;;8.55;3.05;;;;;;;;;;4984963;28;20034;-73
2023/07/16 02:59:20;;;;;;;11.73;3.30;;;;;;;;;;4984429;28;20491;-72
2023/07/16 03:01:46;;;;;;;8.68;3.53;;;;;;;;;;4984024;28;20072;-73
2023/07/16 03:04:12;;;;;;;12.52;3.80;;;;;;;;;;4983471;28;20121;-73
2023/07/16 03:06:38;;;;;;;14.32;3.53;;;;;;;;;;4985460;28;20481;-74
2023/07/16 03:09:04;;;;;;;10.57;3.50;;;;;;;;;;4985929;28;20044;-73
2023/07/16 03:11:30;;;;;;;12.95;3.83;;;;;;;;;;4986547;28;20034;-73
2023/07/16 03:13:56;;;;;;;10.15;3.50;;;;;;;;;;4985937;28;20403;-73
2023/07/16 03:16:22;;;;;;;8.82;3.67;;;;;;;;;;4984596;28;20049;-72
2023/07/16 03:18:48;;;;;;;9.75;3.53;;;;;;;;;;4984744;28;20089;-73
2023/07/16 03:21:14;;;;;;;12.75;3.50;;;;;;;;;;4981613;28;20398;-73
2023/07/16 03:23:40;;;;;;;13.23;4.20;;;;;;;;;;4977141;28;20034;-73
2023/07/16 03:26:06;;;;;;;15.10;5.00;;;;;;;;;;4984487;28;20042;-73
2023/07/16 03:28:32;;;;;;;12.85;3.88;;;;;;;;;;4983953;28;20564;-73
2023/07/16 03:30:59;;;;;;;13.75;4.05;;;;;;;;;;4999258;28;20129;-73
2023/07/16 03:33:25;;;;;;;15.02;3.85;;;;;;;;;;4984011;28;20034;-73
2023/07/16 03:35:51;;;;;;;9.25;4.10;;;;;;;;;;4984241;28;20038;-73
2023/07/16 03:38:17;;;;;;;11.05;4.05;;;;;;;;;;4984974;28;20035;-74
2023/07/16 03:40:46;;;;;;;14.82;4.32;;;;;;;;;;4984619;28;20065;-73
2023/07/16 03:43:12;;;;;;;13.77;4.20;;;;;;;;;;4981663;28;20384;-73
2023/07/16 03:45:38;;;;;;;10.75;3.78;;;;;;;;;;4985156;28;20041;-73
2023/07/16 03:48:05;;;;;;;10.73;4.10;;;;;;;;;;4986009;28;20054;-73
2023/07/16 03:50:31;;;;;;;14.35;4.45;;;;;;;;;;4980675;28;20510;-75
2023/07/16 03:52:57;;;;;;;16.58;5.57;;;;;;;;;;4982296;28;20027;-74
2023/07/16 03:55:23;;;;;;;14.98;5.22;;;;;;;;;;4977171;28;20130;-75
2023/07/16 03:57:49;;;;;;;13.88;4.65;;;;;;;;;;4985282;28;20117;-77
2023/07/16 04:00:15;;;;;;;11.27;4.03;;;;;;;;;;4978137;28;20113;-74
2023/07/16 04:02:41;;;;;;;25.52;11.07;;;;;;;;;;4983137;28;20037;-74
2023/07/16 04:05:07;;;;;;;14.63;6.00;;;;;;;;;;4983698;28;20377;-75
2023/07/16 04:07:33;;;;;;;10.98;4.65;;;;;;;;;;4981604;28;22196;-76
2023/07/16 04:09:59;;;;;;;12.77;4.28;;;;;;;;;;4983347;28;20066;-79
2023/07/16 04:12:25;;;;;;;14.70;5.80;;;;;;;;;;4988262;28;20061;-80
2023/07/16 04:14:55;;;;;;;11.45;4.32;;;;;;;;;;4989748;28;20403;-78
2023/07/16 04:17:21;;;;;;;15.15;5.32;;;;;;;;;;4984226;28;20069;-79
2023/07/16 04:19:47;;;;;;;10.95;4.65;;;;;;;;;;4982912;28;20034;-74
2023/07/16 04:22:13;;;;;;;13.90;5.07;;;;;;;;;;4981090;28;20061;-77
2023/07/16 04:24:39;;;;;;;12.45;4.40;;;;;;;;;;4981786;28;20057;-76
2023/07/16 04:27:05;;;;;;;16.50;6.10;;;;;;;;;;4987479;28;20117;-75
2023/07/16 04:29:31;;;;;;;15.02;6.18;;;;;;;;;;4985729;28;20038;-78
2023/07/16 04:31:57;;;;;;;15.07;4.45;;;;;;;;;;4983229;28;20037;-80
2023/07/16 04:34:23;;;;;;;11.15;5.05;;;;;;;;;;4983275;28;20113;-78
2023/07/16 04:36:49;;;;;;;15.45;5.68;;;;;;;;;;4988049;28;20109;-77
2023/07/16 04:39:16;;;;;;;14.05;6.35;;;;;;;;;;4988248;28;20068;-75
2023/07/16 04:41:42;;;;;;;16.95;6.13;;;;;;;;;;4991618;28;20445;-81
2023/07/16 04:44:08;;;;;;;13.77;5.80;;;;;;;;;;4989879;28;20392;-77
2023/07/16 04:46:34;;;;;;;12.13;5.07;;;;;;;;;;4990449;28;21831;-77
2023/07/16 04:49:00;;;;;;;16.42;5.00;;;;;;;;;;4987422;28;20492;-76
2023/07/16 04:51:26;;;;;;;14.73;5.35;;;;;;;;;;4988977;28;20910;-77
2023/07/16 04:53:52;;;;;;;17.65;5.93;;;;;;;;;;4990078;28;20049;-75
2023/07/16 04:56:18;;;;;;;15.95;5.80;;;;;;;;;;4985927;28;20492;-77
2023/07/16 04:58:44;;;;;;;18.52;6.20;;;;;;;;;;4983007;28;20034;-79
2023/07/16 05:01:10;;;;;;;13.18;5.90;;;;;;;;;;4976131;28;20508;-78
2023/07/16 05:03:37;;;;;;;14.82;4.70;;;;;;;;;;4985134;28;20030;-77
2023/07/16 05:06:03;;;;;;;17.20;5.85;;;;;;;;;;4985638;28;20161;-77
2023/07/16 05:08:29;;;;;;;14.40;5.10;;;;;;;;;;4985554;28;20117;-77
2023/07/16 05:10:55;;;;;;;11.45;5.45;;;;;;;;;;4985761;28;20038;-76
2023/07/16 05:13:21;;;;;;;14.32;4.85;;;;;;;;;;4982769;28;20035;-76
2023/07/16 05:15:47;;;;;;;15.13;4.65;;;;;;;;;;4979082;28;20026;-77
2023/07/16 05:18:13;;;;;;;9.85;4.50;;;;;;;;;;4980727;28;20029;-75
2023/07/16 05:20:39;;;;;;;15.75;4.80;;;;;;;;;;4987710;28;20037;-76
2023/07/16 05:23:05;;;;;;;12.98;4.88;;;;;;;;;;4986538;28;20049;-75
2023/07/16 05:25:31;;;;;;;18.98;8.38;;;;;;;;;;4990057;28;20114;-76
2023/07/16 05:27:57;;;;;;;14.32;6.93;;;;;;;;;;4989703;28;20117;-77
2023/07/16 05:30:23;;;;;;;13.65;4.40;;;;;;;;;;4986480;28;20479;-78
2023/07/16 05:32:49;;;;;;;14.32;4.68;;;;;;;;;;4982594;28;20031;-75
2023/07/16 05:35:15;;;;;;;11.02;4.57;;;;;;;;;;4983159;28;20121;-74
2023/07/16 05:37:41;;;;;;;9.20;3.80;;;;;;;;;;4971491;28;20039;-75
2023/07/16 05:40:11;;;;;;;16.02;5.72;;;;;;;;;;4989942;28;20404;-75
2023/07/16 05:42:37;;;;;;;21.55;4.63;;;;;;;;;;4986831;28;20046;-75
2023/07/16 05:45:03;;;;;;;11.18;3.95;;;;;;;;;;4986991;28;20031;-75
2023/07/16 05:47:29;;;;;;;11.00;4.07;;;;;;;;;;4988840;28;20030;-74
2023/07/16 05:49:55;;;;;;;13.23;4.53;;;;;;;;;;4987611;28;20045;-75
2023/07/16 05:52:21;;;;;;;10.23;3.90;;;;;;;;;;4993257;28;20030;-75
2023/07/16 05:54:47;;;;;;;12.88;5.47;;;;;;;;;;4991849;28;20440;-75
2023/07/16 05:57:13;;;;;;;14.27;3.95;;;;;;;;;;4992395;28;20114;-75
2023/07/16 05:59:39;;;;;;;13.95;4.50;;;;;;;;;;4990527;28;20035;-76
2023/07/16 06:02:05;;;;;;;14.18;4.68;;;;;;;;;;4986658;28;20043;-77
2023/07/16 06:04:31;;;;;;;12.95;4.97;;;;;;;;;;4992645;28;20030;-75
2023/07/16 06:06:57;;;;;;;9.65;4.47;;;;;;;;;;4991239;28;20053;-76
2023/07/16 06:09:23;;;;;;;16.60;5.13;;;;;;;;;;4989430;28;20042;-76
2023/07/16 06:11:50;;;;;;;15.63;5.15;;;;;;;;;;4993097;28;20065;-75
2023/07/16 06:14:16;;;;;;;13.63;4.70;;;;;;;;;;4991580;28;20042;-76
2023/07/16 06:16:42;;;;;;;19.83;6.40;;;;;;;;;;4988999;28;20485;-75
2023/07/16 06:19:08;;;;;;;12.82;5.38;;;;;;;;;;4993438;28;20383;-76
2023/07/16 06:21:35;;;;;;;15.32;5.25;;;;;;;;;;4994030;28;20038;-75
2023/07/16 06:24:01;;;;;;;16.02;5.30;;;;;;;;;;4993967;28;20037;-75
2023/07/16 06:26:27;;;;;;;15.27;5.22;;;;;;;;;;4991922;28;20109;-75
2023/07/16 06:28:53;;;;;;;12.57;5.13;;;;;;;;;;4994021;28;20129;-75
2023/07/16 06:31:19;;;;;;;16.88;5.47;;;;;;;;;;4985823;28;20038;-76
2023/07/16 06:33:46;;;;;;;18.90;6.15;;;;;;;;;;4990962;28;20062;-76
2023/07/16 06:36:13;;;;;;;13.50;5.22;;;;;;;;;;4990266;28;20027;-76
2023/07/16 06:38:39;;;;;;;16.38;5.97;;;;;;;;;;4993787;28;20039;-76
2023/07/16 06:41:05;;;;;;;13.98;5.35;;;;;;;;;;4992136;28;20054;-76
2023/07/16 06:43:31;;;;;;;12.05;4.78;;;;;;;;;;4993121;28;20125;-75
2023/07/16 06:45:57;;;;;;;15.20;6.65;;;;;;;;;;4990460;28;20042;-75
2023/07/16 06:48:23;;;;;;;17.10;6.38;;;;;;;;;;4989202;28;20130;-75
2023/07/16 06:50:51;;;;;;;15.35;5.68;;;;;;;;;;4984228;28;20088;-75
2023/07/16 06:53:17;;;;;;;18.83;5.80;;;;;;;;;;4993399;28;20042;-75
2023/07/16 06:55:43;;;;;;;24.17;5.45;;;;;;;;;;4989799;28;20086;-76
2023/07/16 06:58:15;;;;;;;11.48;4.85;;;;;;;;;;4990064;28;20045;-76
2023/07/16 07:00:41;;;;;;;12.13;5.78;;;;;;;;;;4991063;28;20034;-75
2023/07/16 07:03:07;;;;;;;12.02;4.72;;;;;;;;;;4991164;28;20117;-76
2023/07/16 07:05:35;;;;;;;14.50;5.18;;;;;;;;;;4988697;28;20057;-76
2023/07/16 07:08:01;;;;;;;18.92;5.40;;;;;;;;;;4991549;28;20073;-77
2023/07/16 07:10:27;;;;;;;16.20;6.22;;;;;;;;;;4989772;28;20475;-76
2023/07/16 07:12:53;;;;;;;17.25;5.80;;;;;;;;;;4989898;28;20537;-77
2023/07/16 07:15:20;;;;;;;13.10;6.15;;;;;;;;;;4985249;28;20023;-76
2023/07/16 07:17:46;;;;;;;17.02;6.22;;;;;;;;;;4992578;28;20042;-76
2023/07/16 07:20:13;;;;;;;13.35;6.03;;;;;;;;;;4991465;28;20104;-76
2023/07/16 07:22:39;;;;;;;15.30;6.25;;;;;;;;;;4990694;28;20038;-76
2023/07/16 07:25:05;;;;;;;14.65;5.22;;;;;;;;;;4992058;28;20129;-76
2023/07/16 07:27:32;;;;;;;10.20;5.10;;;;;;;;;;4989942;28;20034;-76
2023/07/16 07:29:58;;;;;;;12.25;5.20;;;;;;;;;;4992367;28;20088;-76
2023/07/16 07:32:25;;;;;;;13.82;4.93;;;;;;;;;;4990098;28;20026;-76
2023/07/16 07:34:51;;;;;;;11.65;5.65;;;;;;;;;;4989954;28;20034;-75
2023/07/16 07:37:17;;;;;;;16.15;5.85;;;;;;;;;;4991147;28;20050;-76
2023/07/16 07:39:47;;;;;;;14.00;5.07;;;;;;;;;;4991637;28;20112;-76
2023/07/16 07:42:13;;;;;;;10.10;4.63;;;;;;;;;;4992315;28;20061;-76
2023/07/16 07:44:39;;;;;;;12.07;5.20;;;;;;;;;;4990061;28;20551;-76
2023/07/16 07:47:05;;;;;;;13.20;5.43;;;;;;;;;;4987266;28;20056;-76
2023/07/16 07:49:31;;;;;;;13.77;4.70;;;;;;;;;;4991085;28;20129;-76
2023/07/16 07:51:57;;;;;;;14.13;4.28;;;;;;;;;;4990271;28;20136;-76
2023/07/16 07:54:23;;;;;;;13.73;4.85;;;;;;;;;;4989577;28;20057;-75
2023/07/16 07:56:49;;;;;;;17.52;5.55;;;;;;;;;;4990673;28;20034;-75
2023/07/16 07:59:15;;;;;;;18.20;5.65;;;;;;;;;;4990485;28;20038;-76
2023/07/16 08:01:41;;;;;;;17.05;5.05;;;;;;;;;;4984464;28;20448;-75
2023/07/16 08:04:07;;;;;;;19.02;6.30;;;;;;;;;;4990589;28;20125;-76
2023/07/16 08:06:33;;;;;;;16.48;6.03;;;;;;;;;;4990743;28;20049;-75
2023/07/16 08:09:00;;;;;;;13.07;5.93;;;;;;;;;;4977294;28;20089;-75
2023/07/16 08:11:26;;;;;;;14.48;6.53;;;;;;;;;;4979229;28;20076;-76
2023/07/16 08:13:52;;;;;;;15.98;5.97;;;;;;;;;;4988859;28;20034;-75
2023/07/16 08:16:18;;;;;;;11.27;5.47;;;;;;;;;;4984486;28;20034;-76
2023/07/16 08:18:44;;;;;;;11.20;5.45;;;;;;;;;;4991864;28;20041;-76
2023/07/16 08:21:10;;;;;;;18.63;6.28;;;;;;;;;;4991955;28;20101;-75
2023/07/16 08:23:36;;;;;;;15.98;5.88;;;;;;;;;;4989954;28;20037;-75
2023/07/16 08:26:02;;;;;;;17.20;5.90;;;;;;;;;;4991067;28;20019;-75
2023/07/16 08:28:28;;;;;;;13.20;4.78;;;;;;;;;;4991782;28;20041;-76
2023/07/16 08:30:54;;;;;;;15.82;5.50;;;;;;;;;;4986044;28;20473;-76
2023/07/16 08:33:20;;;;;;;17.90;5.50;;;;;;;;;;4988002;28;20077;-76
2023/07/16 08:35:46;;;;;;;17.60;5.88;;;;;;;;;;4987436;28;20042;-78
2023/07/16 08:38:12;;;;;;;13.40;5.13;;;;;;;;;;4990605;28;20057;-75
2023/07/16 08:40:39;;;;;;;12.02;5.88;;;;;;;;;;4986623;28;20057;-77
2023/07/16 08:43:09;;;;;;;12.00;5.93;;;;;;;;;;4991541;28;20039;-77
2023/07/16 08:45:39;;;;;;;11.25;5.40;;;;;;;;;;4987971;28;20023;-77
2023/07/16 08:48:05;;;;;;;14.65;5.07;;;;;;;;;;4983245;28;20471;-74
2023/07/16 08:50:31;;;;;;;16.30;4.82;;;;;;;;;;4990743;28;20057;-78
2023/07/16 08:52:57;;;;;;;36.65;21.95;;;;;;;;;;4989245;28;20492;-77
2023/07/16 08:55:23;;;;;;;9.70;5.10;;;;;;;;;;4986465;28;20034;-76
2023/07/16 08:57:49;;;;;;;11.48;4.30;;;;;;;;;;4993306;28;20045;-77
2023/07/16 09:00:16;;;;;;;10.32;4.10;;;;;;;;;;4987073;28;20030;-75
2023/07/16 09:02:42;;;;;;;9.93;4.10;;;;;;;;;;4986177;28;20367;-75
2023/07/16 09:05:09;;;;;;;9.93;4.20;;;;;;;;;;4989296;28;20096;-76
2023/07/16 09:07:37;;;;;;;11.30;4.88;;;;;;;;;;4989347;28;20077;-75
2023/07/16 09:10:04;;;;;;;15.43;4.90;;;;;;;;;;4993265;28;20026;-76
2023/07/16 09:12:30;;;;;;;10.88;4.93;;;;;;;;;;4991174;28;20499;-76
2023/07/16 09:14:56;;;;;;;9.38;4.28;;;;;;;;;;4989926;28;20102;-78
2023/07/16 09:17:23;;;;;;;22.63;8.68;;;;;;;;;;4983719;28;20061;-77
2023/07/16 09:19:50;;;;;;;14.23;4.63;;;;;;;;;;4990895;28;20080;-78
2023/07/16 09:22:17;;;;;;;14.50;5.00;;;;;;;;;;4989894;28;20034;-76
2023/07/16 09:24:45;;;;;;;14.68;5.10;;;;;;;;;;4988362;28;20070;-77
2023/07/16 09:27:12;;;;;;;12.88;4.20;;;;;;;;;;4990421;28;20030;-78
2023/07/16 09:29:39;;;;;;;12.68;4.00;;;;;;;;;;4983395;28;20046;-77
2023/07/16 09:32:05;;;;;;;8.77;3.95;;;;;;;;;;4982925;28;20042;-77
2023/07/16 09:34:31;;;;;;;15.52;3.53;;;;;;;;;;4984502;28;20113;-77
2023/07/16 09:36:58;;;;;;;10.52;4.25;;;;;;;;;;4974871;28;20049;-77
2023/07/16 09:39:25;;;;;;;8.60;3.90;;;;;;;;;;4979518;28;20030;-77
2023/07/16 09:41:51;;;;;;;10.13;4.50;;;;;;;;;;4981512;28;20133;-77
2023/07/16 09:44:18;;;;;;;8.95;3.67;;;;;;;;;;4979272;28;20089;-76
2023/07/16 09:46:44;;;;;;;14.50;4.20;;;;;;;;;;4983592;28;20030;-76
2023/07/16 09:49:11;;;;;;;13.60;4.30;;;;;;;;;;4984932;28;20034;-76
2023/07/16 09:51:38;;;;;;;10.93;4.88;;;;;;;;;;4986032;28;20034;-77
2023/07/16 09:54:05;;;;;;;12.90;4.63;;;;;;;;;;4977111;28;20412;-77
2023/07/16 09:56:34;;;;;;;7.63;4.22;;;;;;;;;;4977217;28;20118;-76
2023/07/16 09:59:01;;;;;;;12.35;4.70;;;;;;;;;;4986585;28;20030;-75
2023/07/16 10:01:29;;;;;;;15.40;5.35;;;;;;;;;;4979633;28;20113;-76
2023/07/16 10:03:55;;;;;;;15.10;5.10;;;;;;;;;;4980459;28;20034;-75
2023/07/16 10:06:21;;;;;;;16.13;4.78;;;;;;;;;;4960993;28;20030;-75
2023/07/16 10:08:50;;;;;;;14.02;4.65;;;;;;;;;;4973181;28;20034;-75
2023/07/16 10:11:17;;;;;;;8.23;4.40;;;;;;;;;;4978191;28;20096;-75
2023/07/16 10:13:43;;;;;;;8.77;4.97;;;;;;;;;;4975728;28;20041;-75
2023/07/16 10:16:20;;;;;;;13.55;6.47;;;;;;;;;;4985604;28;20035;-75
2023/07/16 10:18:53;;;;;;;10.30;5.50;;;;;;;;;;4987885;28;20044;-76
2023/07/16 10:21:23;;;;;;;13.13;4.30;;;;;;;;;;4977230;28;20030;-75
2023/07/16 10:23:57;;;;;;;9.70;5.05;;;;;;;;;;4982100;28;20056;-75
2023/07/16 10:26:28;;;;;;;13.80;5.00;;;;;;;;;;4988284;28;20113;-75
2023/07/16 10:28:54;;;;;;;10.38;4.72;;;;;;;;;;4985122;28;20527;-74
2023/07/16 10:31:25;;;;;;;15.07;4.65;;;;;;;;;;4972227;28;20472;-75
2023/07/16 10:34:07;;;;;;;15.45;5.13;;;;;;;;;;4979704;28;20120;-74
2023/07/16 10:36:40;;;;;;;9.70;4.40;;;;;;;;;;4972292;28;20439;-74
2023/07/16 10:39:06;;;;;;;13.73;4.38;;;;;;;;;;4980511;28;20042;-73
2023/07/16 10:41:32;;;;;;;12.00;4.30;;;;;;;;;;4978225;28;20085;-74
2023/07/16 10:43:59;;;;;;;11.07;4.32;;;;;;;;;;4983062;28;20032;-75
2023/07/16 10:46:25;;;;;;;7.85;3.85;;;;;;;;;;4986602;28;20238;-76
2023/07/16 10:48:51;;;;;;;10.20;3.85;;;;;;;;;;4992986;28;20108;-76
2023/07/16 10:51:17;;;;;;;11.77;4.75;;;;;;;;;;4980893;28;20039;-75
2023/07/16 10:53:44;;;;;;;11.32;4.68;;;;;;;;;;4990287;28;20039;-74
2023/07/16 10:56:10;;;;;;;10.07;3.72;;;;;;;;;;4974191;28;20369;-74
2023/07/16 10:58:40;;;;;;;7.57;4.03;;;;;;;;;;4984317;28;20042;-72
2023/07/16 11:01:08;;;;;;;13.38;4.38;;;;;;;;;;4981436;28;20426;-73
2023/07/16 11:03:35;;;;;;;12.48;4.00;;;;;;;;;;4986527;28;20361;-74
2023/07/16 11:06:06;;;;;;;17.17;8.10;;;;;;;;;;4992215;28;20103;-74
2023/07/16 11:08:32;;;;;;;13.05;4.38;;;;;;;;;;4992995;28;20138;-74
2023/07/16 11:10:58;;;;;;;9.73;3.97;;;;;;;;;;4996372;28;20117;-73
2023/07/16 11:13:28;;;;;;;11.57;4.25;;;;;;;;;;4995319;28;20057;-74
2023/07/16 11:15:54;;;;;;;12.65;3.45;;;;;;;;;;4982339;28;20543;-73
2023/07/16 11:18:23;;;;;;;13.23;4.15;;;;;;;;;;4982232;28;20034;-74
2023/07/16 11:20:51;;;;;;;15.10;4.07;;;;;;;;;;4986591;28;20039;-73
2023/07/16 11:23:17;;;;;;;10.05;3.58;;;;;;;;;;4983077;28;20117;-74
2023/07/16 11:25:47;;;;;;;9.45;3.75;;;;;;;;;;4975578;28;20057;-74
2023/07/16 11:28:13;;;;;;;10.75;3.45;;;;;;;;;;4985873;28;20039;-75
2023/07/16 11:30:39;;;;;;;8.23;2.63;;;;;;;;;;4977345;28;20403;-75
2023/07/16 11:33:10;;;;;;;9.40;3.20;;;;;;;;;;4987647;28;20034;-75
2023/07/16 11:35:37;;;;;;;14.93;4.32;;;;;;;;;;4985423;28;20038;-75
2023/07/16 11:38:05;;;;;;;10.75;3.65;;;;;;;;;;4980531;28;20043;-75
2023/07/16 11:40:31;;;;;;;8.35;3.60;;;;;;;;;;4983306;28;20089;-75
2023/07/16 11:42:57;;;;;;;8.75;3.92;;;;;;;;;;4983942;28;20040;-76
2023/07/16 11:45:27;;;;;;;19.23;4.60;;;;;;;;;;4983150;28;20045;-74
2023/07/16 11:47:54;;;;;;;10.90;4.65;;;;;;;;;;4987530;28;20085;-75
2023/07/16 11:50:20;;;;;;;10.77;4.65;;;;;;;;;;4986328;28;20039;-78
2023/07/16 11:52:53;;;;;;;11.65;4.10;;;;;;;;;;5005511;28;20088;-77
2023/07/16 11:55:19;;;;;;;14.13;6.22;;;;;;;;;;4991286;28;20026;-77
2023/07/16 11:57:45;;;;;;;15.27;4.40;;;;;;;;;;4991989;28;20562;-77
2023/07/16 12:00:12;;;;;;;16.27;5.10;;;;;;;;;;4989230;28;20033;-78
2023/07/16 12:02:38;;;;;;;10.25;5.03;;;;;;;;;;4986106;28;20035;-76
2023/07/16 12:05:04;;;;;;;16.10;4.25;;;;;;;;;;4998546;28;20034;-75
2023/07/16 12:07:37;;;;;;;9.32;4.28;;;;;;;;;;4988773;28;20035;-75
2023/07/16 12:10:04;;;;;;;14.10;4.25;;;;;;;;;;4991926;28;20061;-75
2023/07/16 12:12:30;;;;;;;14.00;4.47;;;;;;;;;;4990373;28;20027;-75
2023/07/16 12:14:56;;;;;;;10.63;3.80;;;;;;;;;;4990541;28;20042;-75
2023/07/16 12:17:22;;;;;;;10.02;3.67;;;;;;;;;;4983100;28;20187;-75
2023/07/16 12:19:48;;;;;;;9.68;3.50;;;;;;;;;;4974821;28;20142;-75
2023/07/16 12:22:16;;;;;;;12.40;4.30;;;;;;;;;;4975432;28;20109;-75
2023/07/16 12:24:42;;;;;;;8.50;3.95;;;;;;;;;;4976679;28;20713;-74
2023/07/16 12:27:08;;;;;;;12.88;3.97;;;;;;;;;;4984329;28;20037;-75
2023/07/16 12:29:34;;;;;;;8.75;3.83;;;;;;;;;;4982106;28;20041;-75
2023/07/16 12:32:00;;;;;;;12.43;3.65;;;;;;;;;;4981097;28;20280;-75
2023/07/16 12:34:26;;;;;;;12.20;4.10;;;;;;;;;;4980606;28;20073;-75
2023/07/16 12:36:54;;;;;;;11.13;3.95;;;;;;;;;;4980861;28;20044;-75
2023/07/16 12:39:20;;;;;;;9.25;3.72;;;;;;;;;;4983689;28;20030;-75
2023/07/16 12:41:46;;;;;;;15.65;4.93;;;;;;;;;;4981641;28;20060;-74
2023/07/16 12:44:12;;;;;;;16.10;4.05;;;;;;;;;;4981354;28;20038;-74
2023/07/16 12:46:38;;;;;;;14.10;4.25;;;;;;;;;;4976769;28;20463;-75
2023/07/16 12:49:04;;;;;;;21.77;4.10;;;;;;;;;;4986812;28;20097;-74
2023/07/16 12:51:30;;;;;;;22.13;5.13;;;;;;;;;;4991143;28;20042;-74
2023/07/16 12:53:56;;;;;;;15.95;3.72;;;;;;;;;;4990168;28;20069;-75
2023/07/16 12:56:22;;;;;;;15.60;3.80;;;;;;;;;;4983654;28;20432;-77
2023/07/16 12:58:48;;;;;;;37.63;16.20;;;;;;;;;;4987770;28;20677;-76
2023/07/16 13:01:14;;;;;;;14.68;2.88;;;;;;;;;;4980912;28;20027;-74
2023/07/16 13:03:40;;;;;;;11.35;3.05;;;;;;;;;;4984934;28;20503;-75
2023/07/16 13:06:06;;;;;;;10.65;2.78;;;;;;;;;;4990129;28;20105;-78
2023/07/16 13:08:33;;;;;;;8.02;2.85;;;;;;;;;;4984643;28;20485;-74
2023/07/16 13:10:59;;;;;;;14.27;3.03;;;;;;;;;;4983451;28;20077;-80
2023/07/16 13:13:25;;;;;;;10.35;3.03;;;;;;;;;;4989364;28;20026;-77
2023/07/16 13:15:51;;;;;;;11.95;2.70;;;;;;;;;;4989535;28;20031;-78
2023/07/16 13:18:18;;;;;;;17.33;3.58;;;;;;;;;;4990914;28;20038;-80
2023/07/16 13:20:44;;;;;;;16.15;3.35;;;;;;;;;;4988837;28;20164;-82
2023/07/16 13:23:10;;;;;;;21.98;3.20;;;;;;;;;;4990296;28;20377;-79
2023/07/16 13:25:38;;;;;;;12.73;3.95;;;;;;;;;;4988043;28;20022;-74
2023/07/16 13:28:05;;;;;;;17.38;3.42;;;;;;;;;;4995377;28;20035;-81
2023/07/16 13:30:31;;;;;;;21.98;2.35;;;;;;;;;;4972291;28;20031;-77
2023/07/16 13:32:57;;;;;;;10.98;2.17;;;;;;;;;;4988575;28;20243;-75
2023/07/16 13:35:23;;;;;;;14.55;2.47;;;;;;;;;;4988617;28;20585;-77
2023/07/16 13:37:49;;;;;;;9.65;2.22;;;;;;;;;;4990386;28;20036;-73
2023/07/16 13:40:15;;;;;;;13.63;2.67;;;;;;;;;;4989063;28;20046;-76
2023/07/16 13:42:41;;;;;;;14.02;2.85;;;;;;;;;;4991001;28;20388;-80
2023/07/16 13:45:08;;;;;;;12.80;2.30;;;;;;;;;;4991416;28;20478;-75
2023/07/16 13:47:34;;;;;;;12.57;2.63;;;;;;;;;;4987610;28;20042;-75
2023/07/16 13:50:00;;;;;;;15.57;2.40;;;;;;;;;;4990546;28;20035;-83
2023/07/16 13:52:26;;;;;;;14.43;2.25;;;;;;;;;;4990807;28;20113;-74
2023/07/16 13:54:52;;;;;;;15.73;2.42;;;;;;;;;;4987115;28;20031;-78
2023/07/16 13:57:18;;;;;;;14.55;2.35;;;;;;;;;;4988135;28;20672;-76
2023/07/16 13:59:44;;;;;;;11.55;2.97;;;;;;;;;;4991655;28;20034;-86
2023/07/16 14:02:10;;;;;;;17.20;2.75;;;;;;;;;;4987212;28;20614;-76
2023/07/16 14:04:36;;;;;;;21.67;8.05;;;;;;;;;;4990991;28;20388;-80
2023/07/16 14:07:03;;;;;;;16.58;3.42;;;;;;;;;;4990192;28;20038;-88
2023/07/16 14:09:29;;;;;;;13.80;2.65;;;;;;;;;;4990893;28;20542;-81
2023/07/16 14:11:55;;;;;;;12.80;2.03;;;;;;;;;;4989921;28;20037;-78
2023/07/16 14:14:21;;;;;;;15.43;1.98;;;;;;;;;;4992143;28;20105;-81
2023/07/16 14:16:48;;;;;;;18.30;3.10;;;;;;;;;;4988854;28;20030;-76
2023/07/16 14:19:14;;;;;;;14.90;2.47;;;;;;;;;;4993196;28;20041;-77
2023/07/16 14:21:40;;;;;;;10.50;2.28;;;;;;;;;;4993941;28;20455;-82
2023/07/16 14:24:06;;;;;;;14.18;3.15;;;;;;;;;;4991996;28;20134;-82
2023/07/16 14:26:33;;;;;;;12.70;2.55;;;;;;;;;;4980290;28;20026;-82